createdAt,value
2023-04-18T00:01:25.057Z,98742.54
2023-04-18T00:03:53.342Z,98738.71
2023-04-18T00:06:22.291Z,98740.25
2023-04-18T00:08:50.029Z,98738.11
2023-04-18T00:11:17.679Z,98739.36
2023-04-18T00:13:47.586Z,98738.33
2023-04-18T00:16:15.600Z,98741.98
2023-04-18T00:18:43.377Z,98738.63
2023-04-18T00:21:11.151Z,98739.49
2023-04-18T00:23:39.865Z,98741.79
2023-04-18T00:26:07.461Z,98743.59
2023-04-18T00:28:35.131Z,98741.81
2023-04-18T00:31:02.890Z,98739.86
2023-04-18T00:33:30.653Z,98742.40
2023-04-18T00:35:58.257Z,98743.44
2023-04-18T00:38:25.850Z,98745.40
2023-04-18T00:40:53.444Z,98743.77
2023-04-18T00:43:23.426Z,98739.55
2023-04-18T00:45:51.047Z,98739.89
2023-04-18T00:48:18.675Z,98740.27
2023-04-18T00:50:46.332Z,98737.34
2023-04-18T00:53:13.915Z,98740.27
2023-04-18T00:55:41.592Z,98740.80
2023-04-18T00:58:09.242Z,98740.77
2023-04-18T01:00:36.896Z,98746.71
2023-04-18T01:03:04.648Z,98743.60
2023-04-18T01:05:32.428Z,98743.27
2023-04-18T01:08:01.335Z,98744.83
2023-04-18T01:10:29.249Z,98741.65
2023-04-18T01:13:23.189Z,98742.00
2023-04-18T01:15:54.075Z,98740.81
2023-04-18T01:18:22.578Z,98749.20
2023-04-18T01:20:51.107Z,98747.23
2023-04-18T01:23:19.219Z,98750.69
2023-04-18T01:25:47.284Z,98750.53
2023-04-18T01:28:15.069Z,98752.30
2023-04-18T01:30:42.706Z,98750.73
2023-04-18T01:33:10.320Z,98746.52
2023-04-18T01:35:38.108Z,98750.83
2023-04-18T01:38:05.776Z,98742.96
2023-04-18T01:40:33.404Z,98738.42
2023-04-18T01:43:01.297Z,98739.30
2023-04-18T01:45:28.893Z,98741.02
2023-04-18T01:47:56.634Z,98736.67
2023-04-18T01:50:24.442Z,98737.05
2023-04-18T01:52:52.030Z,98737.25
2023-04-18T01:55:19.698Z,98737.55
2023-04-18T01:57:47.352Z,98733.15
2023-04-18T02:00:15.854Z,98738.21
2023-04-18T02:02:43.625Z,98738.77
2023-04-18T02:05:11.394Z,98737.45
2023-04-18T02:07:39.755Z,98733.83
2023-04-18T02:10:07.913Z,98732.48
2023-04-18T02:12:35.529Z,98728.60
2023-04-18T02:15:03.564Z,98735.39
2023-04-18T02:17:31.342Z,98733.71
2023-04-18T02:19:59.007Z,98733.56
2023-04-18T02:22:26.583Z,98731.06
2023-04-18T02:24:54.176Z,98728.41
2023-04-18T02:27:21.812Z,98729.78
2023-04-18T02:29:49.420Z,98734.33
2023-04-18T02:32:17.070Z,98735.73
2023-04-18T02:34:44.719Z,98733.96
2023-04-18T02:37:12.323Z,98732.31
2023-04-18T02:39:39.890Z,98728.45
2023-04-18T02:42:07.493Z,98725.66
2023-04-18T02:44:35.129Z,98728.25
2023-04-18T02:47:02.742Z,98735.51
2023-04-18T02:49:30.385Z,98741.42
2023-04-18T02:51:58.051Z,98739.00
2023-04-18T02:54:25.779Z,98738.66
2023-04-18T02:56:57.006Z,98738.48
2023-04-18T02:59:24.693Z,98732.52
2023-04-18T03:01:52.416Z,98738.58
2023-04-18T03:04:20.240Z,98737.03
2023-04-18T03:06:50.041Z,98744.38
2023-04-18T03:09:17.896Z,98746.40
2023-04-18T03:11:45.533Z,98749.16
2023-04-18T03:14:13.241Z,98749.70
2023-04-18T03:16:41.082Z,98753.19
2023-04-18T03:19:09.246Z,98749.84
2023-04-18T03:21:36.850Z,98750.52
2023-04-18T03:24:04.953Z,98753.16
2023-04-18T03:26:32.507Z,98748.81
2023-04-18T03:29:00.106Z,98746.39
2023-04-18T03:31:27.772Z,98749.15
2023-04-18T03:33:55.404Z,98754.70
2023-04-18T03:36:25.447Z,98753.83
2023-04-18T03:38:54.698Z,98760.43
2023-04-18T03:41:22.300Z,98762.48
2023-04-18T03:43:49.909Z,98761.95
2023-04-18T03:46:17.558Z,98764.77
2023-04-18T03:48:45.285Z,98763.75
2023-04-18T03:51:14.202Z,98764.57
2023-04-18T03:53:41.955Z,98762.94
2023-04-18T03:56:09.589Z,98766.04
2023-04-18T03:58:37.194Z,98767.84
2023-04-18T04:01:06.594Z,98770.48
2023-04-18T04:03:34.302Z,98769.95
2023-04-18T04:06:01.995Z,98772.37
2023-04-18T04:08:29.642Z,98767.86
2023-04-18T04:10:57.257Z,98776.13
2023-04-18T04:13:24.898Z,98776.51
2023-04-18T04:15:52.549Z,98778.59
2023-04-18T04:18:20.401Z,98782.95
2023-04-18T04:20:48.025Z,98790.27
2023-04-18T04:23:15.620Z,98786.81
2023-04-18T04:25:45.538Z,98789.77
2023-04-18T04:28:14.044Z,98789.60
2023-04-18T04:30:41.751Z,98793.67
2023-04-18T04:33:09.345Z,98794.94
2023-04-18T04:35:37.057Z,98802.64
2023-04-18T04:38:04.661Z,98805.77
2023-04-18T04:40:32.365Z,98803.20
2023-04-18T04:43:00.489Z,98807.41
2023-04-18T04:45:28.145Z,98809.16
2023-04-18T04:47:55.936Z,98813.38
2023-04-18T04:50:23.556Z,98811.02
2023-04-18T04:52:51.299Z,98812.58
2023-04-18T04:55:19.091Z,98811.11
2023-04-18T04:57:47.824Z,98816.36
2023-04-18T05:00:20.766Z,98817.95
2023-04-18T05:02:49.082Z,98820.26
2023-04-18T05:05:16.784Z,98823.89
2023-04-18T05:07:44.364Z,98825.93
2023-04-18T05:10:11.981Z,98830.45
2023-04-18T05:12:39.589Z,98825.92
2023-04-18T05:15:08.014Z,98828.09
2023-04-18T05:17:35.661Z,98830.19
2023-04-18T05:20:04.190Z,98833.36
2023-04-18T05:22:32.424Z,98831.53
2023-04-18T05:25:00.127Z,98830.77
2023-04-18T05:27:27.821Z,98834.11
2023-04-18T05:29:55.865Z,98836.62
2023-04-18T05:32:23.565Z,98841.77
2023-04-18T05:34:51.243Z,98843.25
2023-04-18T05:37:18.873Z,98843.16
2023-04-18T05:39:46.652Z,98845.17
2023-04-18T05:42:14.424Z,98841.98
2023-04-18T05:44:42.108Z,98846.63
2023-04-18T05:47:09.991Z,98845.16
2023-04-18T05:49:37.693Z,98843.33
2023-04-18T05:52:05.516Z,98842.92
2023-04-18T05:54:33.224Z,98843.77
2023-04-18T05:57:03.194Z,98843.50
2023-04-18T05:59:32.049Z,98842.68
2023-04-18T06:01:59.819Z,98844.69
2023-04-18T06:04:27.797Z,98842.29
2023-04-18T06:06:55.588Z,98851.94
2023-04-18T06:09:23.192Z,98854.44
2023-04-18T06:11:50.905Z,98859.79
2023-04-18T06:14:18.612Z,98865.80
2023-04-18T06:16:46.269Z,98866.41
2023-04-18T06:19:13.854Z,98866.93
2023-04-18T06:21:42.867Z,98873.70
2023-04-18T06:24:10.549Z,98870.72
2023-04-18T06:26:38.160Z,98869.08
2023-04-18T06:29:05.946Z,98874.65
2023-04-18T06:31:33.576Z,98872.57
2023-04-18T06:34:01.168Z,98881.60
2023-04-18T06:36:28.817Z,98880.65
2023-04-18T06:38:56.430Z,98877.43
2023-04-18T06:41:24.081Z,98881.04
2023-04-18T06:44:02.768Z,98885.86
2023-04-18T06:46:32.758Z,98882.44
2023-04-18T06:49:00.481Z,98883.95
2023-04-18T06:51:28.199Z,98881.75
2023-04-18T06:53:55.899Z,98885.14
2023-04-18T06:56:23.652Z,98882.55
2023-04-18T06:58:52.863Z,98891.40
2023-04-18T07:01:20.838Z,98888.34
2023-04-18T07:03:48.758Z,98887.16
2023-04-18T07:06:16.608Z,98891.42
2023-04-18T07:08:44.205Z,98893.23
2023-04-18T07:11:13.340Z,98892.25
2023-04-18T07:13:40.994Z,98895.67
2023-04-18T07:16:09.426Z,98890.67
2023-04-18T07:18:38.573Z,98892.10
2023-04-18T07:21:09.421Z,98896.70
2023-04-18T07:23:37.274Z,98898.33
2023-04-18T07:26:05.895Z,98897.66
2023-04-18T07:28:33.724Z,98899.85
2023-04-18T07:31:03.188Z,98899.42
2023-04-18T07:33:33.963Z,98904.41
2023-04-18T07:36:02.173Z,98897.45
2023-04-18T07:38:29.796Z,98899.45
2023-04-18T07:40:58.511Z,98900.92
2023-04-18T07:43:26.340Z,98903.45
2023-04-18T07:45:54.058Z,98908.09
2023-04-18T07:48:22.738Z,98909.02
2023-04-18T07:50:50.826Z,98910.30
2023-04-18T07:53:18.491Z,98910.37
2023-04-18T07:55:46.719Z,98904.84
2023-04-18T07:58:14.666Z,98907.56
2023-04-18T08:00:43.848Z,98914.66
2023-04-18T08:03:12.872Z,98914.71
2023-04-18T08:05:41.962Z,98916.86
2023-04-18T08:08:10.760Z,98916.37
2023-04-18T08:10:38.411Z,98920.30
2023-04-18T08:13:06.312Z,98925.64
2023-04-18T08:15:34.061Z,98921.66
2023-04-18T08:18:01.848Z,98925.17
2023-04-18T08:20:29.654Z,98928.66
2023-04-18T08:23:06.838Z,98924.29
2023-04-18T08:25:36.692Z,98926.25
2023-04-18T08:28:04.720Z,98925.08
2023-04-18T08:30:32.506Z,98922.70
2023-04-18T08:33:00.923Z,98925.90
2023-04-18T08:35:30.519Z,98923.66
2023-04-18T08:37:58.117Z,98927.23
2023-04-18T08:40:25.787Z,98922.92
2023-04-18T08:42:54.108Z,98925.79
2023-04-18T08:45:21.830Z,98926.70
2023-04-18T08:47:49.509Z,98927.98
2023-04-18T08:50:18.468Z,98933.27
2023-04-18T08:52:48.847Z,98932.78
2023-04-18T08:55:16.537Z,98928.76
2023-04-18T08:57:44.211Z,98929.48
2023-04-18T09:00:12.613Z,98925.63
2023-04-18T09:02:45.015Z,98929.70
2023-04-18T09:05:19.102Z,98928.66
2023-04-18T09:07:47.771Z,98931.84
2023-04-18T09:10:33.353Z,98923.79
2023-04-18T09:13:03.530Z,98928.43
2023-04-18T09:15:31.725Z,98928.64
2023-04-18T09:18:02.302Z,98928.11
2023-04-18T09:20:41.640Z,98923.89
2023-04-18T09:23:11.328Z,98926.38
2023-04-18T09:25:45.488Z,98926.89
2023-04-18T09:28:30.239Z,98920.39
2023-04-18T09:31:09.663Z,98920.56
2023-04-18T09:33:37.763Z,98922.15
2023-04-18T09:36:25.148Z,98927.79
2023-04-18T09:38:56.200Z,98918.64
2023-04-18T09:41:24.266Z,98916.52
2023-04-18T09:44:09.716Z,98919.86
2023-04-18T09:46:39.375Z,98921.44
2023-04-18T09:49:09.632Z,98916.84
2023-04-18T09:51:38.516Z,98912.60
2023-04-18T09:54:06.179Z,98911.55
2023-04-18T09:56:33.829Z,98907.65
2023-04-18T09:59:08.843Z,98909.59
2023-04-18T10:01:36.652Z,98906.23
2023-04-18T10:04:06.747Z,98909.20
2023-04-18T10:06:35.190Z,98898.42
2023-04-18T10:09:03.399Z,98894.69
2023-04-18T10:11:31.748Z,98894.23
2023-04-18T10:14:02.708Z,98890.04
2023-04-18T10:16:30.401Z,98895.02
2023-04-18T10:18:58.442Z,98889.05
2023-04-18T10:21:27.669Z,98889.70
2023-04-18T10:23:55.503Z,98884.16
2023-04-18T10:26:24.083Z,98885.89
2023-04-18T10:28:58.320Z,98887.59
2023-04-18T10:31:27.435Z,98889.27
2023-04-18T10:36:28.652Z,98883.64
2023-04-18T10:39:00.800Z,98876.77
2023-04-18T10:41:32.110Z,98872.62
2023-04-18T10:44:09.702Z,98871.73
2023-04-18T10:46:38.875Z,98869.99
2023-04-18T10:49:18.752Z,98861.95
2023-04-18T10:51:47.200Z,98861.14
2023-04-18T10:54:24.170Z,98859.05
2023-04-18T10:56:56.648Z,98858.20
2023-04-18T10:59:25.455Z,98854.00
2023-04-18T11:01:58.209Z,98852.52
2023-04-18T11:04:25.898Z,98848.58
2023-04-18T11:06:58.382Z,98844.07
2023-04-18T11:09:26.062Z,98847.69
2023-04-18T11:12:07.532Z,98840.86
2023-04-18T11:14:45.763Z,98840.55
2023-04-18T11:17:21.949Z,98835.90
2023-04-18T11:19:50.362Z,98840.17
2023-04-18T11:22:18.371Z,98837.77
2023-04-18T11:24:46.024Z,98832.71
2023-04-18T11:27:13.988Z,98836.98
2023-04-18T11:29:41.790Z,98835.79
2023-04-18T11:32:09.596Z,98839.83
2023-04-18T11:34:37.393Z,98836.62
2023-04-18T11:37:08.513Z,98833.35
2023-04-18T11:39:42.920Z,98833.52
2023-04-18T11:42:10.614Z,98830.59
2023-04-18T11:44:40.076Z,98833.13
2023-04-18T11:47:29.086Z,98827.79
2023-04-18T11:50:07.018Z,98827.02
2023-04-18T11:52:35.574Z,98832.42
2023-04-18T11:55:13.720Z,98825.74
2023-04-18T11:57:42.014Z,98823.35
2023-04-18T12:00:12.245Z,98823.65
2023-04-18T12:02:44.172Z,98825.82
2023-04-18T12:05:15.063Z,98822.50
2023-04-18T12:07:44.967Z,98820.69
2023-04-18T12:10:30.989Z,98820.11
2023-04-18T12:12:59.064Z,98820.39
2023-04-18T12:15:28.355Z,98820.20
2023-04-18T12:18:00.693Z,98825.62
2023-04-18T12:20:46.397Z,98819.19
2023-04-18T12:23:33.843Z,98818.25
2023-04-18T12:26:05.055Z,98811.81
2023-04-18T12:28:33.499Z,98805.20
2023-04-18T12:31:01.881Z,98804.88
2023-04-18T12:33:30.532Z,98806.04
2023-04-18T12:35:58.285Z,98808.55
2023-04-18T12:38:25.958Z,98811.66
2023-04-18T12:40:53.576Z,98802.69
2023-04-18T12:43:21.209Z,98808.12
2023-04-18T12:45:49.681Z,98808.45
2023-04-18T12:48:17.405Z,98804.05
2023-04-18T12:50:45.004Z,98800.40
2023-04-18T12:53:12.845Z,98800.19
2023-04-18T12:55:40.789Z,98801.61
2023-04-18T12:58:08.540Z,98797.17
2023-04-18T13:00:36.240Z,98798.77
2023-04-18T13:03:04.769Z,98798.73
2023-04-18T13:05:34.174Z,98797.58
2023-04-18T13:10:32.697Z,98796.45
2023-04-18T13:13:00.516Z,98795.04
2023-04-18T13:15:28.439Z,98792.65
2023-04-18T13:17:57.068Z,98790.71
2023-04-18T13:20:24.814Z,98790.36
2023-04-18T13:22:52.492Z,98789.95
2023-04-18T13:25:20.344Z,98796.40
2023-04-18T13:27:50.156Z,98800.81
2023-04-18T13:30:17.927Z,98791.57
2023-04-18T13:32:46.271Z,98790.73
2023-04-18T13:35:14.023Z,98788.95
2023-04-18T13:37:41.897Z,98790.59
2023-04-18T13:40:10.129Z,98792.32
2023-04-18T13:42:38.416Z,98793.66
2023-04-18T13:45:07.444Z,98782.50
2023-04-18T13:47:35.866Z,98786.92
2023-04-18T13:50:04.089Z,98791.17
2023-04-18T13:52:31.759Z,98799.66
2023-04-18T13:54:59.396Z,98797.43
2023-04-18T13:57:28.445Z,98803.55
2023-04-18T13:59:56.084Z,98798.80
2023-04-18T14:02:23.908Z,98801.98
2023-04-18T14:04:52.721Z,98799.38
2023-04-18T14:07:20.406Z,98804.05
2023-04-18T14:09:48.242Z,98807.17
2023-04-18T14:12:16.061Z,98803.00
2023-04-18T14:14:43.686Z,98803.48
2023-04-18T14:17:11.419Z,98802.20
2023-04-18T14:19:39.177Z,98802.73
2023-04-18T14:22:07.831Z,98804.56
2023-04-18T14:24:36.492Z,98803.21
2023-04-18T14:27:04.189Z,98802.91
2023-04-18T14:29:31.784Z,98800.20
2023-04-18T14:31:59.411Z,98801.40
2023-04-18T14:34:27.008Z,98805.19
2023-04-18T14:36:54.693Z,98804.91
2023-04-18T14:39:22.393Z,98800.97
2023-04-18T14:41:50.052Z,98806.08
2023-04-18T14:44:17.630Z,98807.05
2023-04-18T14:46:45.318Z,98807.55
2023-04-18T14:49:13.119Z,98808.83
2023-04-18T14:51:41.127Z,98807.89
2023-04-18T14:54:08.713Z,98803.69
2023-04-18T14:56:36.347Z,98797.80
2023-04-18T14:59:03.987Z,98800.52
2023-04-18T15:01:31.669Z,98799.65
2023-04-18T15:03:59.772Z,98798.33
2023-04-18T15:06:28.433Z,98798.00
2023-04-18T15:08:56.712Z,98796.48
2023-04-18T15:11:24.453Z,98797.22
2023-04-18T15:13:52.080Z,98802.01
2023-04-18T15:16:19.780Z,98801.30
2023-04-18T15:18:47.494Z,98804.34
2023-04-18T15:21:15.104Z,98806.63
2023-04-18T15:23:42.851Z,98807.13
2023-04-18T15:26:10.743Z,98810.64
2023-04-18T15:28:38.349Z,98805.20
2023-04-18T15:31:06.096Z,98808.36
2023-04-18T15:33:33.718Z,98809.25
2023-04-18T15:36:01.308Z,98812.71
2023-04-18T15:38:30.492Z,98810.41
2023-04-18T15:40:59.972Z,98813.91
2023-04-18T15:43:27.582Z,98809.94
2023-04-18T15:45:55.224Z,98816.35
2023-04-18T15:48:22.854Z,98814.83
2023-04-18T15:50:51.198Z,98816.64
2023-04-18T15:53:18.917Z,98816.36
2023-04-18T15:55:46.919Z,98815.69
2023-04-18T15:58:14.651Z,98814.33
2023-04-18T16:00:42.294Z,98815.64
2023-04-18T16:03:10.506Z,98818.70
2023-04-18T16:05:38.343Z,98826.17
2023-04-18T16:08:06.332Z,98824.10
2023-04-18T16:10:33.937Z,98828.57
2023-04-18T16:13:02.442Z,98829.36
2023-04-18T16:15:34.864Z,98828.91
2023-04-18T16:18:02.578Z,98824.59
2023-04-18T16:20:30.276Z,98829.41
2023-04-18T16:22:57.870Z,98824.56
2023-04-18T16:25:25.755Z,98827.79
2023-04-18T16:27:53.759Z,98828.54
2023-04-18T16:30:21.492Z,98831.91
2023-04-18T16:32:49.154Z,98833.88
2023-04-18T16:35:16.840Z,98836.89
2023-04-18T16:37:44.477Z,98838.16
2023-04-18T16:40:12.294Z,98834.83
2023-04-18T16:42:41.200Z,98833.08
2023-04-18T16:45:08.994Z,98837.14
2023-04-18T16:47:36.712Z,98836.98
2023-04-18T16:50:05.210Z,98835.73
2023-04-18T16:52:32.917Z,98836.64
2023-04-18T16:55:00.588Z,98835.05
2023-04-18T16:57:28.221Z,98836.99
2023-04-18T16:59:55.900Z,98838.58
2023-04-18T17:02:24.023Z,98839.63
2023-04-18T17:04:51.916Z,98844.38
2023-04-18T17:07:19.582Z,98841.20
2023-04-18T17:09:47.240Z,98843.63
2023-04-18T17:12:15.045Z,98846.77
2023-04-18T17:14:42.645Z,98845.00
2023-04-18T17:17:10.579Z,98845.52
2023-04-18T17:19:39.187Z,98845.15
2023-04-18T17:22:07.344Z,98846.54
2023-04-18T17:24:35.196Z,98848.09
2023-04-18T17:27:03.046Z,98845.61
2023-04-18T17:29:30.957Z,98844.88
2023-04-18T17:31:58.989Z,98849.61
2023-04-18T17:34:26.984Z,98849.23
2023-04-18T17:36:54.925Z,98853.60
2023-04-18T17:39:22.875Z,98854.28
2023-04-18T17:41:50.753Z,98860.60
2023-04-18T17:44:18.386Z,98865.65
2023-04-18T17:46:47.377Z,98865.27
2023-04-18T17:49:16.840Z,98862.77
2023-04-18T17:51:44.704Z,98864.31
2023-04-18T17:54:13.488Z,98867.08
2023-04-18T17:56:41.376Z,98871.89
2023-04-18T17:59:09.862Z,98872.88
2023-04-18T18:01:37.901Z,98876.70
2023-04-18T18:04:05.889Z,98877.90
2023-04-18T18:06:34.679Z,98877.00
2023-04-18T18:09:02.940Z,98874.35
2023-04-18T18:11:30.586Z,98879.75
2023-04-18T18:13:58.264Z,98878.33
2023-04-18T18:16:26.294Z,98873.55
2023-04-18T18:18:54.074Z,98872.79
2023-04-18T18:21:21.869Z,98870.82
2023-04-18T18:23:49.781Z,98875.34
2023-04-18T18:26:17.427Z,98875.84
2023-04-18T18:28:45.152Z,98870.92
2023-04-18T18:31:13.103Z,98876.33
2023-04-18T18:33:41.227Z,98874.23
2023-04-18T18:36:08.839Z,98877.41
2023-04-18T18:38:36.860Z,98873.38
2023-04-18T18:41:05.712Z,98876.89
2023-04-18T18:43:33.629Z,98876.55
2023-04-18T18:46:01.272Z,98875.48
2023-04-18T18:48:29.260Z,98875.29
2023-04-18T18:50:58.544Z,98875.97
2023-04-18T18:53:26.183Z,98872.80
2023-04-18T18:55:53.812Z,98870.67
2023-04-18T18:58:21.747Z,98870.80
2023-04-18T19:00:51.220Z,98867.27
2023-04-18T19:03:21.249Z,98869.67
2023-04-18T19:05:49.368Z,98864.90
2023-04-18T19:08:17.283Z,98864.01
2023-04-18T19:10:44.922Z,98869.21
2023-04-18T19:13:12.531Z,98868.48
2023-04-18T19:15:40.212Z,98867.92
2023-04-18T19:18:07.933Z,98866.00
2023-04-18T19:20:35.671Z,98864.63
2023-04-18T19:23:03.299Z,98860.64
2023-04-18T19:25:31.288Z,98862.27
2023-04-18T19:27:58.937Z,98858.95
2023-04-18T19:30:26.552Z,98858.62
2023-04-18T19:32:54.208Z,98858.95
2023-04-18T19:35:22.094Z,98857.18
2023-04-18T19:37:49.918Z,98854.70
2023-04-18T19:40:17.799Z,98857.48
2023-04-18T19:42:46.212Z,98854.45
2023-04-18T19:45:15.210Z,98850.03
2023-04-18T19:47:44.431Z,98849.66
2023-04-18T19:50:12.197Z,98848.75
2023-04-18T19:52:39.875Z,98851.01
2023-04-18T19:55:07.965Z,98847.11
2023-04-18T19:57:39.635Z,98845.33
2023-04-18T20:00:09.358Z,98845.64
2023-04-18T20:02:37.329Z,98844.40
2023-04-18T20:05:06.347Z,98840.22
2023-04-18T20:07:34.811Z,98837.80
2023-04-18T20:10:02.471Z,98839.23
2023-04-18T20:12:30.161Z,98840.81
2023-04-18T20:14:58.981Z,98834.14
2023-04-18T20:17:27.734Z,98836.59
2023-04-18T20:19:57.333Z,98834.48
2023-04-18T20:22:26.726Z,98832.85
2023-04-18T20:24:57.272Z,98832.49
2023-04-18T20:27:25.006Z,98829.13
2023-04-18T20:29:52.657Z,98825.79
2023-04-18T20:32:20.675Z,98826.45
2023-04-18T20:34:48.531Z,98824.50
2023-04-18T20:37:19.830Z,98824.99
2023-04-18T20:39:47.713Z,98822.16
2023-04-18T20:42:15.857Z,98815.86
2023-04-18T20:44:44.793Z,98820.08
2023-04-18T20:47:15.148Z,98811.90
2023-04-18T20:49:43.279Z,98812.09
2023-04-18T20:52:10.925Z,98812.13
2023-04-18T20:54:38.575Z,98810.55
2023-04-18T20:57:06.301Z,98807.05
2023-04-18T20:59:33.903Z,98806.13
2023-04-18T21:02:01.714Z,98801.39
2023-04-18T21:04:29.610Z,98806.61
2023-04-18T21:06:57.932Z,98796.26
2023-04-18T21:09:25.707Z,98799.58
2023-04-18T21:11:53.323Z,98794.27
2023-04-18T21:14:20.971Z,98795.27
2023-04-18T21:16:48.560Z,98792.98
2023-04-18T21:19:16.415Z,98789.17
2023-04-18T21:21:44.138Z,98788.70
2023-04-18T21:24:11.852Z,98785.75
2023-04-18T21:26:39.494Z,98785.44
2023-04-18T21:29:07.590Z,98781.92
2023-04-18T21:31:35.511Z,98783.13
2023-04-18T21:34:04.627Z,98777.52
2023-04-18T21:36:32.682Z,98781.14
2023-04-18T21:39:00.979Z,98782.99
2023-04-18T21:41:28.721Z,98777.18
2023-04-18T21:43:56.398Z,98776.25
2023-04-18T21:46:24.226Z,98777.07
2023-04-18T21:48:52.041Z,98773.92
2023-04-18T21:51:19.661Z,98771.14
2023-04-18T21:53:47.338Z,98769.77
2023-04-18T21:56:14.987Z,98767.48
2023-04-18T21:58:42.625Z,98763.60
2023-04-18T22:01:10.339Z,98761.14
2023-04-18T22:03:38.178Z,98758.64
2023-04-18T22:06:06.227Z,98756.52
2023-04-18T22:08:33.889Z,98751.57
2023-04-18T22:11:01.670Z,98744.35
2023-04-18T22:13:35.683Z,98745.55
2023-04-18T22:16:03.759Z,98743.11
2023-04-18T22:18:34.576Z,98739.95
2023-04-18T22:21:03.430Z,98741.14
2023-04-18T22:23:31.295Z,98738.68
2023-04-18T22:25:58.947Z,98733.58
2023-04-18T22:28:28.179Z,98733.37
2023-04-18T22:30:56.066Z,98731.73
2023-04-18T22:33:24.381Z,98726.63
2023-04-18T22:35:52.336Z,98725.54
2023-04-18T22:38:19.948Z,98724.30
2023-04-18T22:40:47.744Z,98717.96
2023-04-18T22:43:15.350Z,98718.80
2023-04-18T22:45:42.981Z,98715.41
2023-04-18T22:48:13.282Z,98712.73
2023-04-18T22:50:42.930Z,98707.41
2023-04-18T22:53:11.150Z,98704.91
2023-04-18T22:55:40.482Z,98702.93
2023-04-18T22:58:08.796Z,98700.31
2023-04-18T23:00:37.009Z,98697.17
2023-04-18T23:03:04.864Z,98695.61
2023-04-18T23:05:33.373Z,98694.02
2023-04-18T23:08:01.050Z,98692.42
2023-04-18T23:10:28.730Z,98686.42
2023-04-18T23:12:56.727Z,98685.84
2023-04-18T23:15:25.352Z,98681.95
2023-04-18T23:17:53.391Z,98677.37
2023-04-18T23:20:21.424Z,98676.69
2023-04-18T23:22:51.572Z,98671.10
2023-04-18T23:25:20.064Z,98664.46
2023-04-18T23:27:48.023Z,98664.45
2023-04-18T23:30:16.071Z,98659.35
2023-04-18T23:32:44.048Z,98653.70
2023-04-18T23:35:11.907Z,98652.08
2023-04-18T23:37:39.577Z,98647.15
2023-04-18T23:40:08.206Z,98644.67
2023-04-18T23:42:35.984Z,98639.77
2023-04-18T23:45:04.102Z,98640.16
2023-04-18T23:47:31.734Z,98639.81
2023-04-18T23:49:59.656Z,98634.55
2023-04-18T23:52:27.280Z,98628.40
2023-04-18T23:54:55.554Z,98623.48
2023-04-18T23:57:23.180Z,98622.21
2023-04-18T23:59:50.793Z,98622.91
